sensor_id;sensor_type;location;lat;lon;timestamp;P1;P2;P0
57411;PMS5003;43247;52.828;-8.980;2023-01-05T00:00:13;9;9;
57411;PMS5003;43247;52.828;-8.980;2023-01-05T00:01:13;9;9;
57411;PMS5003;43247;52.828;-8.980;2023-01-05T00:02:14;8;7;
57411;PMS5003;43247;52.828;-8.980;2023-01-05T00:03:14;12;10;
57411;PMS5003;43247;52.828;-8.980;2023-01-05T00:04:14;9;8;
57411;PMS5003;43247;52.828;-8.980;2023-01-05T00:05:14;11;9;
57411;PMS5003;43247;52.828;-8.980;2023-01-05T00:06:15;13;12;
57411;PMS5003;43247;52.828;-8.980;2023-01-05T00:07:15;11;9;
57411;PMS5003;43247;52.828;-8.980;2023-01-05T00:08:16;8;8;
57411;PMS5003;43247;52.828;-8.980;2023-01-05T00:09:16;9;9;
57411;PMS5003;43247;52.828;-8.980;2023-01-05T00:10:16;9;7;
57411;PMS5003;43247;52.828;-8.980;2023-01-05T00:11:17;9;7;
57411;PMS5003;43247;52.828;-8.980;2023-01-05T00:12:17;7;7;
57411;PMS5003;43247;52.828;-8.980;2023-01-05T00:13:17;8;8;
57411;PMS5003;43247;52.828;-8.980;2023-01-05T00:14:18;10;10;
57411;PMS5003;43247;52.828;-8.980;2023-01-05T00:15:18;11;10;
57411;PMS5003;43247;52.828;-8.980;2023-01-05T00:16:18;10;8;
57411;PMS5003;43247;52.828;-8.980;2023-01-05T00:17:20;12;12;
57411;PMS5003;43247;52.828;-8.980;2023-01-05T00:18:19;10;8;
57411;PMS5003;43247;52.828;-8.980;2023-01-05T00:19:19;9;9;
57411;PMS5003;43247;52.828;-8.980;2023-01-05T00:20:20;9;8;
57411;PMS5003;43247;52.828;-8.980;2023-01-05T00:21:20;10;10;
57411;PMS5003;43247;52.828;-8.980;2023-01-05T00:22:20;11;10;
57411;PMS5003;43247;52.828;-8.980;2023-01-05T00:23:20;9;9;
57411;PMS5003;43247;52.828;-8.980;2023-01-05T00:24:21;10;8;
57411;PMS5003;43247;52.828;-8.980;2023-01-05T00:25:22;12;8;
57411;PMS5003;43247;52.828;-8.980;2023-01-05T00:26:21;11;9;
57411;PMS5003;43247;52.828;-8.980;2023-01-05T00:27:22;9;9;
57411;PMS5003;43247;52.828;-8.980;2023-01-05T00:28:23;8;8;
57411;PMS5003;43247;52.828;-8.980;2023-01-05T00:29:23;14;10;
57411;PMS5003;43247;52.828;-8.980;2023-01-05T00:30:24;7;7;
57411;PMS5003;43247;52.828;-8.980;2023-01-05T00:31:23;13;13;
57411;PMS5003;43247;52.828;-8.980;2023-01-05T00:32:24;12;11;
57411;PMS5003;43247;52.828;-8.980;2023-01-05T00:33:24;11;10;
57411;PMS5003;43247;52.828;-8.980;2023-01-05T00:34:25;13;12;
57411;PMS5003;43247;52.828;-8.980;2023-01-05T00:35:25;10;9;
57411;PMS5003;43247;52.828;-8.980;2023-01-05T00:36:25;9;9;
57411;PMS5003;43247;52.828;-8.980;2023-01-05T00:37:26;10;8;
57411;PMS5003;43247;52.828;-8.980;2023-01-05T00:38:25;8;8;
57411;PMS5003;43247;52.828;-8.980;2023-01-05T00:39:26;12;9;
57411;PMS5003;43247;52.828;-8.980;2023-01-05T00:40:26;9;8;
57411;PMS5003;43247;52.828;-8.980;2023-01-05T00:41:26;11;11;
57411;PMS5003;43247;52.828;-8.980;2023-01-05T00:42:27;12;9;
57411;PMS5003;43247;52.828;-8.980;2023-01-05T00:43:27;10;9;
57411;PMS5003;43247;52.828;-8.980;2023-01-05T00:44:27;8;8;
57411;PMS5003;43247;52.828;-8.980;2023-01-05T00:45:27;7;7;
57411;PMS5003;43247;52.828;-8.980;2023-01-05T00:46:27;10;10;
57411;PMS5003;43247;52.828;-8.980;2023-01-05T00:47:27;11;8;
57411;PMS5003;43247;52.828;-8.980;2023-01-05T00:48:28;9;9;
57411;PMS5003;43247;52.828;-8.980;2023-01-05T00:49:28;8;6;
57411;PMS5003;43247;52.828;-8.980;2023-01-05T00:50:29;8;8;
57411;PMS5003;43247;52.828;-8.980;2023-01-05T00:51:29;9;5;
57411;PMS5003;43247;52.828;-8.980;2023-01-05T00:52:30;11;9;
57411;PMS5003;43247;52.828;-8.980;2023-01-05T00:53:30;13;10;
57411;PMS5003;43247;52.828;-8.980;2023-01-05T00:54:30;9;7;
57411;PMS5003;43247;52.828;-8.980;2023-01-05T00:55:30;10;8;
57411;PMS5003;43247;52.828;-8.980;2023-01-05T00:56:30;10;8;
57411;PMS5003;43247;52.828;-8.980;2023-01-05T00:57:30;9;9;
57411;PMS5003;43247;52.828;-8.980;2023-01-05T00:58:31;9;9;
57411;PMS5003;43247;52.828;-8.980;2023-01-05T00:59:31;11;8;
57411;PMS5003;43247;52.828;-8.980;2023-01-05T01:00:32;13;12;
57411;PMS5003;43247;52.828;-8.980;2023-01-05T01:01:32;9;7;
57411;PMS5003;43247;52.828;-8.980;2023-01-05T01:02:32;8;7;
57411;PMS5003;43247;52.828;-8.980;2023-01-05T01:03:32;10;9;
57411;PMS5003;43247;52.828;-8.980;2023-01-05T01:04:33;9;9;
57411;PMS5003;43247;52.828;-8.980;2023-01-05T01:05:33;9;6;
57411;PMS5003;43247;52.828;-8.980;2023-01-05T01:06:33;7;6;
57411;PMS5003;43247;52.828;-8.980;2023-01-05T01:07:33;11;9;
57411;PMS5003;43247;52.828;-8.980;2023-01-05T01:08:33;8;7;
57411;PMS5003;43247;52.828;-8.980;2023-01-05T01:09:34;11;8;
57411;PMS5003;43247;52.828;-8.980;2023-01-05T01:10:34;9;7;
57411;PMS5003;43247;52.828;-8.980;2023-01-05T01:11:34;6;6;
57411;PMS5003;43247;52.828;-8.980;2023-01-05T01:12:34;9;7;
57411;PMS5003;43247;52.828;-8.980;2023-01-05T01:13:35;10;8;
57411;PMS5003;43247;52.828;-8.980;2023-01-05T01:14:35;9;7;
57411;PMS5003;43247;52.828;-8.980;2023-01-05T01:15:35;15;11;
57411;PMS5003;43247;52.828;-8.980;2023-01-05T01:16:35;11;9;
57411;PMS5003;43247;52.828;-8.980;2023-01-05T01:17:36;8;8;
57411;PMS5003;43247;52.828;-8.980;2023-01-05T01:18:36;8;7;
57411;PMS5003;43247;52.828;-8.980;2023-01-05T01:19:36;12;10;
57411;PMS5003;43247;52.828;-8.980;2023-01-05T01:20:36;11;8;
57411;PMS5003;43247;52.828;-8.980;2023-01-05T01:21:36;8;8;
57411;PMS5003;43247;52.828;-8.980;2023-01-05T01:22:37;10;9;
57411;PMS5003;43247;52.828;-8.980;2023-01-05T01:23:37;7;7;
57411;PMS5003;43247;52.828;-8.980;2023-01-05T01:24:38;7;7;
57411;PMS5003;43247;52.828;-8.980;2023-01-05T01:25:38;8;6;
57411;PMS5003;43247;52.828;-8.980;2023-01-05T01:26:38;7;7;
57411;PMS5003;43247;52.828;-8.980;2023-01-05T01:27:38;7;7;
57411;PMS5003;43247;52.828;-8.980;2023-01-05T01:28:38;8;7;
57411;PMS5003;43247;52.828;-8.980;2023-01-05T01:29:39;9;9;
57411;PMS5003;43247;52.828;-8.980;2023-01-05T01:30:39;12;10;
57411;PMS5003;43247;52.828;-8.980;2023-01-05T01:31:40;9;9;
57411;PMS5003;43247;52.828;-8.980;2023-01-05T01:32:40;7;6;
57411;PMS5003;43247;52.828;-8.980;2023-01-05T01:33:40;11;9;
57411;PMS5003;43247;52.828;-8.980;2023-01-05T01:34:40;10;9;
57411;PMS5003;43247;52.828;-8.980;2023-01-05T01:35:40;9;7;
57411;PMS5003;43247;52.828;-8.980;2023-01-05T01:36:41;7;6;
57411;PMS5003;43247;52.828;-8.980;2023-01-05T01:37:41;10;6;
57411;PMS5003;43247;52.828;-8.980;2023-01-05T01:38:41;9;7;
57411;PMS5003;43247;52.828;-8.980;2023-01-05T01:39:41;14;9;
57411;PMS5003;43247;52.828;-8.980;2023-01-05T01:40:42;12;11;
57411;PMS5003;43247;52.828;-8.980;2023-01-05T01:41:41;9;8;
57411;PMS5003;43247;52.828;-8.980;2023-01-05T01:42:42;7;6;
57411;PMS5003;43247;52.828;-8.980;2023-01-05T01:43:43;9;9;
57411;PMS5003;43247;52.828;-8.980;2023-01-05T01:44:47;7;7;
57411;PMS5003;43247;52.828;-8.980;2023-01-05T01:45:43;9;8;
57411;PMS5003;43247;52.828;-8.980;2023-01-05T01:46:42;8;7;
57411;PMS5003;43247;52.828;-8.980;2023-01-05T01:47:44;11;8;
57411;PMS5003;43247;52.828;-8.980;2023-01-05T01:48:44;9;8;
57411;PMS5003;43247;52.828;-8.980;2023-01-05T01:49:44;7;7;
57411;PMS5003;43247;52.828;-8.980;2023-01-05T01:50:45;8;8;
57411;PMS5003;43247;52.828;-8.980;2023-01-05T01:51:45;13;8;
57411;PMS5003;43247;52.828;-8.980;2023-01-05T01:52:45;9;9;
57411;PMS5003;43247;52.828;-8.980;2023-01-05T01:53:46;10;8;
57411;PMS5003;43247;52.828;-8.980;2023-01-05T01:54:46;10;7;
57411;PMS5003;43247;52.828;-8.980;2023-01-05T01:55:46;8;8;
57411;PMS5003;43247;52.828;-8.980;2023-01-05T01:56:48;14;13;
57411;PMS5003;43247;52.828;-8.980;2023-01-05T01:57:46;10;7;
57411;PMS5003;43247;52.828;-8.980;2023-01-05T01:58:47;10;8;
57411;PMS5003;43247;52.828;-8.980;2023-01-05T01:59:47;10;9;
57411;PMS5003;43247;52.828;-8.980;2023-01-05T02:00:47;9;8;
57411;PMS5003;43247;52.828;-8.980;2023-01-05T02:01:47;11;10;
57411;PMS5003;43247;52.828;-8.980;2023-01-05T02:02:48;8;7;
57411;PMS5003;43247;52.828;-8.980;2023-01-05T02:03:48;5;5;
57411;PMS5003;43247;52.828;-8.980;2023-01-05T02:04:48;7;7;
57411;PMS5003;43247;52.828;-8.980;2023-01-05T02:05:49;10;9;
57411;PMS5003;43247;52.828;-8.980;2023-01-05T02:06:49;14;13;
57411;PMS5003;43247;52.828;-8.980;2023-01-05T02:07:50;4;4;
57411;PMS5003;43247;52.828;-8.980;2023-01-05T02:08:50;7;6;
57411;PMS5003;43247;52.828;-8.980;2023-01-05T02:09:51;8;6;
57411;PMS5003;43247;52.828;-8.980;2023-01-05T02:10:54;8;6;
57411;PMS5003;43247;52.828;-8.980;2023-01-05T02:11:53;10;7;
57411;PMS5003;43247;52.828;-8.980;2023-01-05T02:12:56;11;9;
57411;PMS5003;43247;52.828;-8.980;2023-01-05T02:13:56;8;8;
57411;PMS5003;43247;52.828;-8.980;2023-01-05T02:14:54;6;5;
57411;PMS5003;43247;52.828;-8.980;2023-01-05T02:15:55;6;4;
57411;PMS5003;43247;52.828;-8.980;2023-01-05T02:16:56;9;7;
57411;PMS5003;43247;52.828;-8.980;2023-01-05T02:17:57;13;10;
57411;PMS5003;43247;52.828;-8.980;2023-01-05T02:18:58;9;8;
57411;PMS5003;43247;52.828;-8.980;2023-01-05T02:20:57;8;6;
57411;PMS5003;43247;52.828;-8.980;2023-01-05T02:21:56;10;8;
57411;PMS5003;43247;52.828;-8.980;2023-01-05T02:24:01;8;8;
57411;PMS5003;43247;52.828;-8.980;2023-01-05T02:25:02;8;5;
57411;PMS5003;43247;52.828;-8.980;2023-01-05T02:26:03;9;8;
57411;PMS5003;43247;52.828;-8.980;2023-01-05T02:27:03;13;10;
57411;PMS5003;43247;52.828;-8.980;2023-01-05T02:27:58;9;8;
57411;PMS5003;43247;52.828;-8.980;2023-01-05T02:29:03;10;6;
57411;PMS5003;43247;52.828;-8.980;2023-01-05T02:31:02;6;5;
57411;PMS5003;43247;52.828;-8.980;2023-01-05T02:31:59;8;6;
57411;PMS5003;43247;52.828;-8.980;2023-01-05T02:33:00;7;7;
57411;PMS5003;43247;52.828;-8.980;2023-01-05T02:34:03;8;6;
57411;PMS5003;43247;52.828;-8.980;2023-01-05T02:35:01;10;5;
57411;PMS5003;43247;52.828;-8.980;2023-01-05T02:36:01;5;5;
57411;PMS5003;43247;52.828;-8.980;2023-01-05T02:37:01;6;6;
57411;PMS5003;43247;52.828;-8.980;2023-01-05T02:38:02;8;6;
57411;PMS5003;43247;52.828;-8.980;2023-01-05T02:39:02;7;7;
57411;PMS5003;43247;52.828;-8.980;2023-01-05T02:40:02;6;6;
57411;PMS5003;43247;52.828;-8.980;2023-01-05T02:41:02;9;6;
57411;PMS5003;43247;52.828;-8.980;2023-01-05T02:42:02;6;6;
57411;PMS5003;43247;52.828;-8.980;2023-01-05T02:43:02;8;3;
57411;PMS5003;43247;52.828;-8.980;2023-01-05T02:44:02;5;4;
57411;PMS5003;43247;52.828;-8.980;2023-01-05T02:45:03;4;4;
57411;PMS5003;43247;52.828;-8.980;2023-01-05T02:46:03;4;4;
57411;PMS5003;43247;52.828;-8.980;2023-01-05T02:47:04;5;5;
57411;PMS5003;43247;52.828;-8.980;2023-01-05T02:48:04;9;5;
57411;PMS5003;43247;52.828;-8.980;2023-01-05T02:49:04;7;7;
57411;PMS5003;43247;52.828;-8.980;2023-01-05T02:50:07;5;4;
57411;PMS5003;43247;52.828;-8.980;2023-01-05T02:51:06;9;8;
57411;PMS5003;43247;52.828;-8.980;2023-01-05T02:52:05;10;5;
57411;PMS5003;43247;52.828;-8.980;2023-01-05T02:53:07;7;6;
57411;PMS5003;43247;52.828;-8.980;2023-01-05T02:54:07;6;6;
57411;PMS5003;43247;52.828;-8.980;2023-01-05T02:55:07;6;5;
57411;PMS5003;43247;52.828;-8.980;2023-01-05T02:56:08;7;6;
57411;PMS5003;43247;52.828;-8.980;2023-01-05T02:57:08;7;5;
57411;PMS5003;43247;52.828;-8.980;2023-01-05T02:58:10;4;3;
57411;PMS5003;43247;52.828;-8.980;2023-01-05T02:59:08;7;6;
57411;PMS5003;43247;52.828;-8.980;2023-01-05T03:00:08;8;7;
57411;PMS5003;43247;52.828;-8.980;2023-01-05T03:01:08;7;4;
57411;PMS5003;43247;52.828;-8.980;2023-01-05T03:02:08;6;6;
57411;PMS5003;43247;52.828;-8.980;2023-01-05T03:03:08;7;6;
57411;PMS5003;43247;52.828;-8.980;2023-01-05T03:04:08;6;4;
57411;PMS5003;43247;52.828;-8.980;2023-01-05T03:05:09;6;5;
57411;PMS5003;43247;52.828;-8.980;2023-01-05T03:06:09;7;5;
57411;PMS5003;43247;52.828;-8.980;2023-01-05T03:07:10;4;3;
57411;PMS5003;43247;52.828;-8.980;2023-01-05T03:08:09;5;3;
57411;PMS5003;43247;52.828;-8.980;2023-01-05T03:09:09;16;9;
57411;PMS5003;43247;52.828;-8.980;2023-01-05T03:10:10;6;5;
57411;PMS5003;43247;52.828;-8.980;2023-01-05T03:11:10;10;7;
57411;PMS5003;43247;52.828;-8.980;2023-01-05T03:12:11;5;5;
57411;PMS5003;43247;52.828;-8.980;2023-01-05T03:13:11;4;3;
57411;PMS5003;43247;52.828;-8.980;2023-01-05T03:14:12;4;4;
57411;PMS5003;43247;52.828;-8.980;2023-01-05T03:15:13;8;8;
57411;PMS5003;43247;52.828;-8.980;2023-01-05T03:16:13;6;6;
57411;PMS5003;43247;52.828;-8.980;2023-01-05T03:17:13;6;4;
57411;PMS5003;43247;52.828;-8.980;2023-01-05T03:18:13;4;4;
57411;PMS5003;43247;52.828;-8.980;2023-01-05T03:19:13;4;2;
57411;PMS5003;43247;52.828;-8.980;2023-01-05T03:20:13;5;5;
57411;PMS5003;43247;52.828;-8.980;2023-01-05T03:21:13;6;4;
57411;PMS5003;43247;52.828;-8.980;2023-01-05T03:22:14;5;4;
57411;PMS5003;43247;52.828;-8.980;2023-01-05T03:23:14;6;6;
57411;PMS5003;43247;52.828;-8.980;2023-01-05T03:24:14;6;4;
57411;PMS5003;43247;52.828;-8.980;2023-01-05T03:25:14;5;5;
57411;PMS5003;43247;52.828;-8.980;2023-01-05T03:26:14;5;4;
57411;PMS5003;43247;52.828;-8.980;2023-01-05T03:27:15;6;4;
57411;PMS5003;43247;52.828;-8.980;2023-01-05T03:28:15;4;4;
57411;PMS5003;43247;52.828;-8.980;2023-01-05T03:29:15;3;3;
57411;PMS5003;43247;52.828;-8.980;2023-01-05T03:30:16;10;9;
57411;PMS5003;43247;52.828;-8.980;2023-01-05T03:31:17;5;5;
57411;PMS5003;43247;52.828;-8.980;2023-01-05T03:32:17;9;6;
57411;PMS5003;43247;52.828;-8.980;2023-01-05T03:33:18;2;2;
57411;PMS5003;43247;52.828;-8.980;2023-01-05T03:34:18;3;3;
57411;PMS5003;43247;52.828;-8.980;2023-01-05T03:35:19;8;6;
57411;PMS5003;43247;52.828;-8.980;2023-01-05T03:36:18;5;5;
57411;PMS5003;43247;52.828;-8.980;2023-01-05T03:37:20;5;5;
57411;PMS5003;43247;52.828;-8.980;2023-01-05T03:38:20;4;4;
57411;PMS5003;43247;52.828;-8.980;2023-01-05T03:39:18;5;4;
57411;PMS5003;43247;52.828;-8.980;2023-01-05T03:40:19;4;4;
57411;PMS5003;43247;52.828;-8.980;2023-01-05T03:41:18;4;4;
57411;PMS5003;43247;52.828;-8.980;2023-01-05T03:42:19;4;4;
57411;PMS5003;43247;52.828;-8.980;2023-01-05T03:43:19;5;3;
57411;PMS5003;43247;52.828;-8.980;2023-01-05T03:44:19;6;6;
57411;PMS5003;43247;52.828;-8.980;2023-01-05T03:45:19;4;4;
57411;PMS5003;43247;52.828;-8.980;2023-01-05T03:46:20;5;4;
57411;PMS5003;43247;52.828;-8.980;2023-01-05T03:47:21;6;3;
57411;PMS5003;43247;52.828;-8.980;2023-01-05T03:48:20;6;3;
57411;PMS5003;43247;52.828;-8.980;2023-01-05T03:49:20;5;4;
57411;PMS5003;43247;52.828;-8.980;2023-01-05T03:50:20;4;4;
57411;PMS5003;43247;52.828;-8.980;2023-01-05T03:51:20;4;3;
57411;PMS5003;43247;52.828;-8.980;2023-01-05T03:52:20;3;3;
57411;PMS5003;43247;52.828;-8.980;2023-01-05T03:53:21;4;4;
57411;PMS5003;43247;52.828;-8.980;2023-01-05T03:54:21;4;2;
57411;PMS5003;43247;52.828;-8.980;2023-01-05T03:55:21;3;3;
57411;PMS5003;43247;52.828;-8.980;2023-01-05T03:56:21;5;5;
57411;PMS5003;43247;52.828;-8.980;2023-01-05T03:57:22;4;4;
57411;PMS5003;43247;52.828;-8.980;2023-01-05T03:58:22;4;3;
57411;PMS5003;43247;52.828;-8.980;2023-01-05T03:59:22;5;4;
57411;PMS5003;43247;52.828;-8.980;2023-01-05T04:00:22;4;3;
57411;PMS5003;43247;52.828;-8.980;2023-01-05T04:01:22;4;3;
57411;PMS5003;43247;52.828;-8.980;2023-01-05T04:02:22;5;4;
57411;PMS5003;43247;52.828;-8.980;2023-01-05T04:03:23;6;6;
57411;PMS5003;43247;52.828;-8.980;2023-01-05T04:04:23;3;3;
57411;PMS5003;43247;52.828;-8.980;2023-01-05T04:05:23;5;5;
57411;PMS5003;43247;52.828;-8.980;2023-01-05T04:06:23;4;3;
57411;PMS5003;43247;52.828;-8.980;2023-01-05T04:07:24;8;8;
57411;PMS5003;43247;52.828;-8.980;2023-01-05T04:08:24;3;3;
57411;PMS5003;43247;52.828;-8.980;2023-01-05T04:09:24;4;4;
57411;PMS5003;43247;52.828;-8.980;2023-01-05T04:10:24;8;5;
57411;PMS5003;43247;52.828;-8.980;2023-01-05T04:11:25;6;5;
57411;PMS5003;43247;52.828;-8.980;2023-01-05T04:12:25;4;3;
57411;PMS5003;43247;52.828;-8.980;2023-01-05T04:13:25;4;3;
57411;PMS5003;43247;52.828;-8.980;2023-01-05T04:14:25;6;4;
57411;PMS5003;43247;52.828;-8.980;2023-01-05T04:15:25;4;4;
57411;PMS5003;43247;52.828;-8.980;2023-01-05T04:16:25;2;2;
57411;PMS5003;43247;52.828;-8.980;2023-01-05T04:17:26;3;3;
57411;PMS5003;43247;52.828;-8.980;2023-01-05T04:18:26;3;3;
57411;PMS5003;43247;52.828;-8.980;2023-01-05T04:19:26;5;4;
57411;PMS5003;43247;52.828;-8.980;2023-01-05T04:20:26;3;3;
57411;PMS5003;43247;52.828;-8.980;2023-01-05T04:21:26;4;4;
57411;PMS5003;43247;52.828;-8.980;2023-01-05T04:22:26;5;3;
57411;PMS5003;43247;52.828;-8.980;2023-01-05T04:23:27;3;2;
57411;PMS5003;43247;52.828;-8.980;2023-01-05T04:24:27;7;4;
57411;PMS5003;43247;52.828;-8.980;2023-01-05T04:25:27;3;3;
57411;PMS5003;43247;52.828;-8.980;2023-01-05T04:26:27;6;4;
57411;PMS5003;43247;52.828;-8.980;2023-01-05T04:27:27;5;5;
57411;PMS5003;43247;52.828;-8.980;2023-01-05T04:28:27;3;3;
57411;PMS5003;43247;52.828;-8.980;2023-01-05T04:29:28;3;2;
57411;PMS5003;43247;52.828;-8.980;2023-01-05T04:30:28;3;2;
57411;PMS5003;43247;52.828;-8.980;2023-01-05T04:31:28;2;2;
57411;PMS5003;43247;52.828;-8.980;2023-01-05T04:32:28;3;2;
57411;PMS5003;43247;52.828;-8.980;2023-01-05T04:33:28;3;3;
57411;PMS5003;43247;52.828;-8.980;2023-01-05T04:34:29;6;4;
57411;PMS5003;43247;52.828;-8.980;2023-01-05T04:35:29;3;3;
57411;PMS5003;43247;52.828;-8.980;2023-01-05T04:36:29;5;5;
57411;PMS5003;43247;52.828;-8.980;2023-01-05T04:37:30;5;3;
57411;PMS5003;43247;52.828;-8.980;2023-01-05T04:38:30;5;2;
57411;PMS5003;43247;52.828;-8.980;2023-01-05T04:39:30;2;2;
57411;PMS5003;43247;52.828;-8.980;2023-01-05T04:40:30;3;3;
57411;PMS5003;43247;52.828;-8.980;2023-01-05T04:41:30;4;3;
57411;PMS5003;43247;52.828;-8.980;2023-01-05T04:42:31;2;2;
57411;PMS5003;43247;52.828;-8.980;2023-01-05T04:43:31;2;2;
57411;PMS5003;43247;52.828;-8.980;2023-01-05T04:44:31;3;3;
57411;PMS5003;43247;52.828;-8.980;2023-01-05T04:45:31;5;5;
57411;PMS5003;43247;52.828;-8.980;2023-01-05T04:46:31;3;3;
57411;PMS5003;43247;52.828;-8.980;2023-01-05T04:47:31;3;3;
57411;PMS5003;43247;52.828;-8.980;2023-01-05T04:48:32;2;2;
57411;PMS5003;43247;52.828;-8.980;2023-01-05T04:49:32;4;4;
57411;PMS5003;43247;52.828;-8.980;2023-01-05T04:50:32;6;4;
57411;PMS5003;43247;52.828;-8.980;2023-01-05T04:51:33;2;2;
57411;PMS5003;43247;52.828;-8.980;2023-01-05T04:52:33;2;2;
57411;PMS5003;43247;52.828;-8.980;2023-01-05T04:53:33;2;2;
57411;PMS5003;43247;52.828;-8.980;2023-01-05T04:54:33;2;2;
57411;PMS5003;43247;52.828;-8.980;2023-01-05T04:55:33;4;2;
57411;PMS5003;43247;52.828;-8.980;2023-01-05T04:56:34;5;4;
57411;PMS5003;43247;52.828;-8.980;2023-01-05T04:57:34;2;2;
57411;PMS5003;43247;52.828;-8.980;2023-01-05T04:58:34;3;3;
57411;PMS5003;43247;52.828;-8.980;2023-01-05T04:59:35;3;3;
57411;PMS5003;43247;52.828;-8.980;2023-01-05T05:00:35;4;4;
57411;PMS5003;43247;52.828;-8.980;2023-01-05T05:01:35;1;1;
57411;PMS5003;43247;52.828;-8.980;2023-01-05T05:02:35;3;2;
57411;PMS5003;43247;52.828;-8.980;2023-01-05T05:03:35;3;3;
57411;PMS5003;43247;52.828;-8.980;2023-01-05T05:04:35;3;2;
57411;PMS5003;43247;52.828;-8.980;2023-01-05T05:05:36;2;2;
57411;PMS5003;43247;52.828;-8.980;2023-01-05T05:06:36;2;2;
57411;PMS5003;43247;52.828;-8.980;2023-01-05T05:07:36;3;1;
57411;PMS5003;43247;52.828;-8.980;2023-01-05T05:08:36;5;3;
57411;PMS5003;43247;52.828;-8.980;2023-01-05T05:09:36;2;2;
57411;PMS5003;43247;52.828;-8.980;2023-01-05T05:10:37;2;2;
57411;PMS5003;43247;52.828;-8.980;2023-01-05T05:11:37;5;3;
57411;PMS5003;43247;52.828;-8.980;2023-01-05T05:12:37;5;2;
57411;PMS5003;43247;52.828;-8.980;2023-01-05T05:13:37;3;2;
57411;PMS5003;43247;52.828;-8.980;2023-01-05T05:14:37;6;3;
57411;PMS5003;43247;52.828;-8.980;2023-01-05T05:15:37;2;2;
57411;PMS5003;43247;52.828;-8.980;2023-01-05T05:16:37;3;3;
57411;PMS5003;43247;52.828;-8.980;2023-01-05T05:17:38;2;2;
57411;PMS5003;43247;52.828;-8.980;2023-01-05T05:18:38;4;4;
57411;PMS5003;43247;52.828;-8.980;2023-01-05T05:19:38;3;3;
57411;PMS5003;43247;52.828;-8.980;2023-01-05T05:20:40;3;1;
57411;PMS5003;43247;52.828;-8.980;2023-01-05T05:21:38;3;3;
57411;PMS5003;43247;52.828;-8.980;2023-01-05T05:22:39;4;3;
57411;PMS5003;43247;52.828;-8.980;2023-01-05T05:23:39;2;2;
57411;PMS5003;43247;52.828;-8.980;2023-01-05T05:24:39;5;5;
57411;PMS5003;43247;52.828;-8.980;2023-01-05T05:25:39;2;2;
57411;PMS5003;43247;52.828;-8.980;2023-01-05T05:26:39;4;2;
57411;PMS5003;43247;52.828;-8.980;2023-01-05T05:27:39;3;3;
57411;PMS5003;43247;52.828;-8.980;2023-01-05T05:28:40;4;2;
57411;PMS5003;43247;52.828;-8.980;2023-01-05T05:29:40;1;1;
57411;PMS5003;43247;52.828;-8.980;2023-01-05T05:30:40;2;1;
57411;PMS5003;43247;52.828;-8.980;2023-01-05T05:31:40;2;2;
57411;PMS5003;43247;52.828;-8.980;2023-01-05T05:32:40;2;2;
57411;PMS5003;43247;52.828;-8.980;2023-01-05T05:33:40;3;2;
57411;PMS5003;43247;52.828;-8.980;2023-01-05T05:34:41;3;3;
57411;PMS5003;43247;52.828;-8.980;2023-01-05T05:35:41;2;2;
57411;PMS5003;43247;52.828;-8.980;2023-01-05T05:36:41;7;4;
57411;PMS5003;43247;52.828;-8.980;2023-01-05T05:37:41;2;2;
57411;PMS5003;43247;52.828;-8.980;2023-01-05T05:38:41;1;1;
57411;PMS5003;43247;52.828;-8.980;2023-01-05T05:39:41;2;2;
57411;PMS5003;43247;52.828;-8.980;2023-01-05T05:40:42;2;2;
57411;PMS5003;43247;52.828;-8.980;2023-01-05T05:41:42;4;3;
57411;PMS5003;43247;52.828;-8.980;2023-01-05T05:42:42;3;3;
57411;PMS5003;43247;52.828;-8.980;2023-01-05T05:43:42;2;2;
57411;PMS5003;43247;52.828;-8.980;2023-01-05T05:44:42;2;2;
57411;PMS5003;43247;52.828;-8.980;2023-01-05T05:45:43;5;2;
57411;PMS5003;43247;52.828;-8.980;2023-01-05T05:46:43;4;4;
57411;PMS5003;43247;52.828;-8.980;2023-01-05T05:47:43;5;4;
57411;PMS5003;43247;52.828;-8.980;2023-01-05T05:48:43;3;2;
57411;PMS5003;43247;52.828;-8.980;2023-01-05T05:49:43;3;3;
57411;PMS5003;43247;52.828;-8.980;2023-01-05T05:50:44;4;4;
57411;PMS5003;43247;52.828;-8.980;2023-01-05T05:51:44;4;3;
57411;PMS5003;43247;52.828;-8.980;2023-01-05T05:52:44;2;2;
57411;PMS5003;43247;52.828;-8.980;2023-01-05T05:53:44;4;3;
57411;PMS5003;43247;52.828;-8.980;2023-01-05T05:54:44;7;4;
57411;PMS5003;43247;52.828;-8.980;2023-01-05T05:55:46;4;4;
57411;PMS5003;43247;52.828;-8.980;2023-01-05T05:56:44;3;2;
57411;PMS5003;43247;52.828;-8.980;2023-01-05T05:57:45;3;2;
57411;PMS5003;43247;52.828;-8.980;2023-01-05T05:58:45;2;2;
57411;PMS5003;43247;52.828;-8.980;2023-01-05T05:59:45;2;2;
57411;PMS5003;43247;52.828;-8.980;2023-01-05T06:00:45;4;2;
57411;PMS5003;43247;52.828;-8.980;2023-01-05T06:01:46;8;7;
57411;PMS5003;43247;52.828;-8.980;2023-01-05T06:02:46;4;3;
57411;PMS5003;43247;52.828;-8.980;2023-01-05T06:03:46;4;4;
57411;PMS5003;43247;52.828;-8.980;2023-01-05T06:04:46;4;2;
57411;PMS5003;43247;52.828;-8.980;2023-01-05T06:05:47;3;3;
57411;PMS5003;43247;52.828;-8.980;2023-01-05T06:06:47;8;5;
57411;PMS5003;43247;52.828;-8.980;2023-01-05T06:07:47;5;5;
57411;PMS5003;43247;52.828;-8.980;2023-01-05T06:08:47;3;2;
57411;PMS5003;43247;52.828;-8.980;2023-01-05T06:09:48;4;4;
57411;PMS5003;43247;52.828;-8.980;2023-01-05T06:10:48;6;4;
57411;PMS5003;43247;52.828;-8.980;2023-01-05T06:11:48;4;2;
57411;PMS5003;43247;52.828;-8.980;2023-01-05T06:12:48;6;5;
57411;PMS5003;43247;52.828;-8.980;2023-01-05T06:13:49;3;3;
57411;PMS5003;43247;52.828;-8.980;2023-01-05T06:14:49;2;2;
57411;PMS5003;43247;52.828;-8.980;2023-01-05T06:15:49;3;3;
57411;PMS5003;43247;52.828;-8.980;2023-01-05T06:16:50;1;1;
57411;PMS5003;43247;52.828;-8.980;2023-01-05T06:17:50;4;4;
57411;PMS5003;43247;52.828;-8.980;2023-01-05T06:18:50;3;3;
57411;PMS5003;43247;52.828;-8.980;2023-01-05T06:19:50;2;2;
57411;PMS5003;43247;52.828;-8.980;2023-01-05T06:20:50;4;3;
57411;PMS5003;43247;52.828;-8.980;2023-01-05T06:21:50;3;3;
57411;PMS5003;43247;52.828;-8.980;2023-01-05T06:22:51;7;5;
57411;PMS5003;43247;52.828;-8.980;2023-01-05T06:23:51;3;3;
57411;PMS5003;43247;52.828;-8.980;2023-01-05T06:24:51;3;3;
57411;PMS5003;43247;52.828;-8.980;2023-01-05T06:25:52;6;6;
57411;PMS5003;43247;52.828;-8.980;2023-01-05T06:26:52;3;3;
57411;PMS5003;43247;52.828;-8.980;2023-01-05T06:27:52;4;4;
57411;PMS5003;43247;52.828;-8.980;2023-01-05T06:28:52;6;3;
57411;PMS5003;43247;52.828;-8.980;2023-01-05T06:29:52;5;5;
57411;PMS5003;43247;52.828;-8.980;2023-01-05T06:30:52;4;2;
57411;PMS5003;43247;52.828;-8.980;2023-01-05T06:31:53;3;3;
57411;PMS5003;43247;52.828;-8.980;2023-01-05T06:32:53;4;2;
57411;PMS5003;43247;52.828;-8.980;2023-01-05T06:33:53;5;5;
57411;PMS5003;43247;52.828;-8.980;2023-01-05T06:34:53;7;5;
57411;PMS5003;43247;52.828;-8.980;2023-01-05T06:35:53;4;4;
57411;PMS5003;43247;52.828;-8.980;2023-01-05T06:36:54;4;4;
57411;PMS5003;43247;52.828;-8.980;2023-01-05T06:37:54;5;3;
57411;PMS5003;43247;52.828;-8.980;2023-01-05T06:38:54;4;4;
57411;PMS5003;43247;52.828;-8.980;2023-01-05T06:39:54;4;4;
57411;PMS5003;43247;52.828;-8.980;2023-01-05T06:40:54;5;2;
57411;PMS5003;43247;52.828;-8.980;2023-01-05T06:41:54;2;2;
57411;PMS5003;43247;52.828;-8.980;2023-01-05T06:42:55;3;2;
57411;PMS5003;43247;52.828;-8.980;2023-01-05T06:43:55;6;5;
57411;PMS5003;43247;52.828;-8.980;2023-01-05T06:44:55;8;4;
57411;PMS5003;43247;52.828;-8.980;2023-01-05T06:45:55;4;4;
57411;PMS5003;43247;52.828;-8.980;2023-01-05T06:46:55;2;2;
57411;PMS5003;43247;52.828;-8.980;2023-01-05T06:47:55;5;5;